»·PEaware :: N7914W KSNA-L35

N7914W :: KSNA-L35

FLIGHT INFORMATION

Flight Status: Arrived
Operator: Privately registered:
United States
More flights under this callsign
Pilot: Andrew M. (139)
Aircraft: CESSNA 172 SKYHAWK
(C172)
More flights by this aircraft type
Origin: KSNA John Wayne-Orange Co
United States
Destination: L35 Big Bear City
United States
More flights between these airports :: More routes between these airports
Route: +SLI V21 PDZ V442 APLES V386 OKACO
File this flight plan on PilotEdge
Remarks: MSFS first IFR flight
Altitude:
(Current/Filed)
9,000ft
Speed:
(Current/Filed)
110kts
Departed: 16-Oct-20 05:14 PM
Arrived: 16-Oct-20 06:21 PM
Distance/Time
Traveled:
6774nm/1:07
Distance/Time
To Go:
Arrived

Flight Plot

Page will automatically refresh every two minutes.

Flight plan parsing failed; only flown route is shown


Map Options




Map Legend


Flown Route
Filed Route
Departure Airport
Arrival Airport
Navaid (VOR, NDB)
Fix

Horizontal Profiles

Position Reports

Time Latitude Longitude Heading Altitude Ground
Speed
16-Oct-20 16:56 33.676027 -117.871045 139 52ft 0kts
16-Oct-20 16:57 33.676027 -117.871045 139 52ft 0kts
16-Oct-20 16:58 33.676027 -117.871045 139 52ft 0kts
16-Oct-20 16:59 33.676027 -117.871045 139 52ft 0kts
16-Oct-20 17:00 33.676027 -117.871045 139 52ft 0kts
16-Oct-20 17:01 33.676027 -117.871045 139 52ft 0kts
16-Oct-20 17:01 33.676027 -117.871045 139 52ft 0kts
16-Oct-20 17:03 33.676027 -117.871045 139 52ft 0kts
16-Oct-20 17:03 33.676027 -117.871045 139 52ft 0kts
16-Oct-20 17:04 33.676027 -117.871045 139 52ft 0kts
16-Oct-20 17:05 33.676027 -117.871045 139 52ft 0kts
16-Oct-20 17:06 33.676058 -117.870107 28 54ft 6kts
16-Oct-20 17:07 33.678346 -117.868653 27 50ft 7kts
16-Oct-20 17:08 33.680550 -117.867466 27 44ft 11kts
16-Oct-20 17:09 33.681231 -117.866487 117 43ft 0kts
16-Oct-20 17:10 33.681231 -117.866487 117 43ft 0kts
16-Oct-20 17:11 33.681231 -117.866487 117 43ft 0kts
16-Oct-20 17:12 33.680469 -117.865852 206 44ft 13kts
16-Oct-20 17:13 33.666250 -117.876481 238 359ft 71kts
16-Oct-20 17:14 33.656103 -117.898815 242 869ft 82kts
16-Oct-20 17:15 33.645247 -117.923612 244 1397ft 86kts
16-Oct-20 17:16 33.635356 -117.949983 244 1893ft 88kts
16-Oct-20 17:17 33.623564 -117.975716 247 2453ft 88kts
16-Oct-20 17:18 33.638427 -117.985918 8 2967ft 78kts
16-Oct-20 17:19 33.659848 -117.981912 12 3481ft 78kts
16-Oct-20 17:20 33.680882 -117.977724 16 4006ft 75kts
16-Oct-20 17:21 33.701520 -117.972284 13 4497ft 75kts
16-Oct-20 17:22 33.722410 -117.967316 14 4942ft 77kts
16-Oct-20 17:23 33.743592 -117.961947 15 5386ft 78kts
16-Oct-20 17:24 33.764676 -117.955383 15 5823ft 79kts
16-Oct-20 17:25 33.788088 -117.948687 13 6014ft 100kts
16-Oct-20 17:26 33.816793 -117.939827 29 6007ft 111kts
16-Oct-20 17:27 33.829324 -117.905153 66 6007ft 114kts
16-Oct-20 17:28 33.839711 -117.871450 65 6332ft 96kts
16-Oct-20 17:29 33.848272 -117.843626 64 6835ft 82kts
16-Oct-20 17:30 33.856790 -117.815928 65 7137ft 93kts
16-Oct-20 17:31 33.866246 -117.786030 64 7429ft 96kts
16-Oct-20 17:32 33.872194 -117.754461 77 7743ft 97kts
16-Oct-20 17:33 33.872294 -117.722679 109 8042ft 101kts
16-Oct-20 17:34 33.872587 -117.695209 67 8508ft 83kts
16-Oct-20 17:35 33.879874 -117.668996 67 8903ft 81kts
16-Oct-20 17:36 33.887967 -117.639761 68 9000ft 104kts
16-Oct-20 17:37 33.897565 -117.605099 69 9006ft 112kts
16-Oct-20 17:38 33.907440 -117.569400 69 9011ft 112kts
16-Oct-20 17:39 33.917315 -117.533694 68 8999ft 112kts
16-Oct-20 17:40 33.940556 -117.512502 24 9002ft 110kts
16-Oct-20 17:41 33.969238 -117.497756 24 9009ft 112kts
16-Oct-20 17:42 33.998112 -117.485898 342 9021ft 114kts
16-Oct-20 17:43 34.025428 -117.472443 31 8967ft 108kts
16-Oct-20 17:44 34.053253 -117.458940 24 9027ft 109kts
16-Oct-20 17:45 34.081383 -117.444131 24 9005ft 109kts
16-Oct-20 17:46 34.109149 -117.429479 25 9010ft 108kts
16-Oct-20 17:47 34.136890 -117.414828 24 9019ft 108kts
16-Oct-20 17:48 34.164526 -117.400230 24 9027ft 108kts
16-Oct-20 17:49 34.192129 -117.385628 25 9034ft 108kts
16-Oct-20 17:50 34.219678 -117.371056 24 9035ft 105kts
16-Oct-20 17:51 34.246344 -117.356933 25 9034ft 103kts
16-Oct-20 17:52 34.274026 -117.342265 25 9020ft 113kts
16-Oct-20 17:53 34.302862 -117.326976 24 9004ft 107kts
16-Oct-20 17:54 34.328167 -117.313553 25 9305ft 94kts
16-Oct-20 17:55 34.351228 -117.301302 25 9606ft 88kts
16-Oct-20 17:56 34.373717 -117.289360 25 9908ft 87kts
16-Oct-20 17:57 34.395713 -117.277670 26 10211ft 85kts
16-Oct-20 17:58 34.417366 -117.266165 26 10513ft 84kts
16-Oct-20 17:59 34.438725 -117.254800 25 10813ft 83kts
16-Oct-20 18:00 34.460460 -117.243229 25 10991ft 91kts
16-Oct-20 18:01 34.465322 -117.217314 79 10991ft 103kts
16-Oct-20 18:02 34.467411 -117.181825 78 10994ft 106kts
16-Oct-20 18:03 34.470111 -117.145710 79 10997ft 108kts
16-Oct-20 18:04 34.472744 -117.109469 78 10996ft 108kts
16-Oct-20 18:05 34.475339 -117.073325 78 11019ft 107kts
16-Oct-20 18:06 34.477946 -117.036737 79 11008ft 110kts
16-Oct-20 18:07 34.480581 -116.999875 79 11001ft 110kts
16-Oct-20 18:08 34.483209 -116.962748 79 11002ft 110kts
16-Oct-20 18:09 34.485825 -116.925680 79 11002ft 110kts
16-Oct-20 18:10 34.488432 -116.888624 78 11002ft 110kts
16-Oct-20 18:11 34.466210 -116.880409 180 11004ft 129kts
16-Oct-20 18:12 34.430245 -116.876767 171 11001ft 130kts
16-Oct-20 18:13 34.394163 -116.872230 171 11001ft 130kts
16-Oct-20 18:14 34.357604 -116.867676 171 10999ft 133kts
16-Oct-20 18:15 34.321482 -116.859490 141 10949ft 130kts
16-Oct-20 18:16 34.301674 -116.829677 94 9805ft 103kts
16-Oct-20 18:17 34.285054 -116.804588 175 8642ft 104kts
16-Oct-20 18:18 34.264055 -116.812619 264 7547ft 74kts
16-Oct-20 18:19 34.263901 -116.834910 272 7081ft 67kts
16-Oct-20 18:20 34.263794 -116.855245 265 6754ft 13kts
16-Oct-20 18:21 34.263218 -116.856528 187 6756ft 1kts
16-Oct-20 18:22 34.262955 -116.856418 177 6756ft 0kts
16-Oct-20 18:23 34.262899 -116.858726 302 6754ft 8kts
16-Oct-20 18:24 34.263074 -116.856706 89 6756ft 5kts
16-Oct-20 18:25 0.000408 0.013975 359 3ft 0kts

Navigation Log

Ident Type
Flight plan parsing failed, navigation log unavailable